sensor_id;sensor_type;location;lat;lon;timestamp;pressure;altitude;pressure_sealevel;temperature;humidity
62600;BME280;48671;48.922;2.346;2023-03-19T00:01:17;101018.06;;;14.01;64.88
62600;BME280;48671;48.922;2.346;2023-03-19T00:03:42;101023.22;;;14.02;65.11
62600;BME280;48671;48.922;2.346;2023-03-19T00:06:08;101027.06;;;13.95;65.31
62600;BME280;48671;48.922;2.346;2023-03-19T00:08:33;101025.50;;;13.91;65.18
62600;BME280;48671;48.922;2.346;2023-03-19T00:11:07;101026.34;;;13.92;65.28
62600;BME280;48671;48.922;2.346;2023-03-19T00:13:33;101020.53;;;13.87;65.28
62600;BME280;48671;48.922;2.346;2023-03-19T00:15:58;101020.00;;;13.78;65.42
62600;BME280;48671;48.922;2.346;2023-03-19T00:18:24;101027.50;;;13.86;65.60
62600;BME280;48671;48.922;2.346;2023-03-19T00:20:49;101022.56;;;13.80;65.78
62600;BME280;48671;48.922;2.346;2023-03-19T00:23:14;101033.88;;;13.80;65.65
62600;BME280;48671;48.922;2.346;2023-03-19T00:25:40;101014.16;;;13.73;65.51
62600;BME280;48671;48.922;2.346;2023-03-19T00:28:06;101033.88;;;13.80;65.95
62600;BME280;48671;48.922;2.346;2023-03-19T00:30:31;101037.63;;;13.75;65.93
62600;BME280;48671;48.922;2.346;2023-03-19T00:32:56;101034.06;;;13.76;66.03
62600;BME280;48671;48.922;2.346;2023-03-19T00:35:22;101041.38;;;13.69;66.43
62600;BME280;48671;48.922;2.346;2023-03-19T00:37:47;101047.66;;;13.65;66.60
62600;BME280;48671;48.922;2.346;2023-03-19T00:40:12;101043.34;;;13.64;66.51
62600;BME280;48671;48.922;2.346;2023-03-19T00:42:38;101050.28;;;13.65;65.87
62600;BME280;48671;48.922;2.346;2023-03-19T00:45:03;101042.72;;;13.59;66.68
62600;BME280;48671;48.922;2.346;2023-03-19T00:47:29;101058.25;;;13.62;66.54
62600;BME280;48671;48.922;2.346;2023-03-19T00:49:54;101042.00;;;13.55;66.34
62600;BME280;48671;48.922;2.346;2023-03-19T00:52:20;101053.25;;;13.57;67.10
62600;BME280;48671;48.922;2.346;2023-03-19T00:54:45;101052.59;;;13.52;66.78
62600;BME280;48671;48.922;2.346;2023-03-19T00:57:10;101050.81;;;13.53;66.71
62600;BME280;48671;48.922;2.346;2023-03-19T00:59:36;101044.97;;;13.48;66.66
62600;BME280;48671;48.922;2.346;2023-03-19T01:02:01;101048.31;;;13.51;66.73
62600;BME280;48671;48.922;2.346;2023-03-19T01:04:27;101050.06;;;13.51;67.02
62600;BME280;48671;48.922;2.346;2023-03-19T01:06:53;101062.88;;;13.57;66.70
62600;BME280;48671;48.922;2.346;2023-03-19T01:09:18;101060.25;;;13.57;66.74
62600;BME280;48671;48.922;2.346;2023-03-19T01:11:43;101056.06;;;13.53;66.58
62600;BME280;48671;48.922;2.346;2023-03-19T01:14:09;101066.38;;;13.56;66.83
62600;BME280;48671;48.922;2.346;2023-03-19T01:16:34;101059.47;;;13.55;66.62
62600;BME280;48671;48.922;2.346;2023-03-19T01:19:01;101067.31;;;13.55;66.60
62600;BME280;48671;48.922;2.346;2023-03-19T01:21:27;101060.56;;;13.49;66.65
62600;BME280;48671;48.922;2.346;2023-03-19T01:23:55;101072.44;;;13.56;66.55
62600;BME280;48671;48.922;2.346;2023-03-19T01:26:21;101064.81;;;13.52;66.67
62600;BME280;48671;48.922;2.346;2023-03-19T01:28:46;101069.13;;;13.53;66.63
62600;BME280;48671;48.922;2.346;2023-03-19T01:31:12;101064.88;;;13.50;66.47
62600;BME280;48671;48.922;2.346;2023-03-19T01:33:37;101062.22;;;13.52;66.67
62600;BME280;48671;48.922;2.346;2023-03-19T01:36:05;101067.34;;;13.53;66.58
62600;BME280;48671;48.922;2.346;2023-03-19T01:38:31;101063.97;;;13.51;66.58
62600;BME280;48671;48.922;2.346;2023-03-19T01:40:56;101066.50;;;13.53;66.62
62600;BME280;48671;48.922;2.346;2023-03-19T01:43:23;101058.91;;;13.48;66.62
62600;BME280;48671;48.922;2.346;2023-03-19T01:45:51;101056.97;;;13.52;66.49
62600;BME280;48671;48.922;2.346;2023-03-19T01:50:50;101076.22;;;13.51;67.52
62600;BME280;48671;48.922;2.346;2023-03-19T01:53:22;101071.97;;;13.48;67.19
62600;BME280;48671;48.922;2.346;2023-03-19T01:55:49;101073.72;;;13.48;67.37
62600;BME280;48671;48.922;2.346;2023-03-19T01:58:15;101067.78;;;13.44;67.21
62600;BME280;48671;48.922;2.346;2023-03-19T02:00:41;101070.41;;;13.44;67.28
62600;BME280;48671;48.922;2.346;2023-03-19T02:03:07;101060.81;;;13.45;67.44
62600;BME280;48671;48.922;2.346;2023-03-19T02:05:33;101061.66;;;13.45;67.45
62600;BME280;48671;48.922;2.346;2023-03-19T02:08:02;101058.19;;;13.45;67.42
62600;BME280;48671;48.922;2.346;2023-03-19T02:10:29;101062.44;;;13.47;67.81
62600;BME280;48671;48.922;2.346;2023-03-19T02:12:55;101059.88;;;13.46;68.41
62600;BME280;48671;48.922;2.346;2023-03-19T02:15:20;101054.16;;;13.38;68.63
62600;BME280;48671;48.922;2.346;2023-03-19T02:17:46;101047.22;;;13.37;69.10
62600;BME280;48671;48.922;2.346;2023-03-19T02:20:24;101043.91;;;13.33;68.53
62600;BME280;48671;48.922;2.346;2023-03-19T02:23:19;101037.91;;;13.31;68.74
62600;BME280;48671;48.922;2.346;2023-03-19T02:25:59;101044.94;;;13.29;68.99
62600;BME280;48671;48.922;2.346;2023-03-19T02:28:25;101055.63;;;13.24;69.44
62600;BME280;48671;48.922;2.346;2023-03-19T02:30:51;101047.94;;;13.20;69.13
62600;BME280;48671;48.922;2.346;2023-03-19T02:33:17;101045.41;;;13.18;69.06
62600;BME280;48671;48.922;2.346;2023-03-19T02:35:44;101048.63;;;13.25;68.95
62600;BME280;48671;48.922;2.346;2023-03-19T02:38:12;101049.50;;;13.24;68.92
62600;BME280;48671;48.922;2.346;2023-03-19T02:40:43;101051.25;;;13.23;69.09
62600;BME280;48671;48.922;2.346;2023-03-19T02:43:10;101057.41;;;13.22;69.22
62600;BME280;48671;48.922;2.346;2023-03-19T02:45:35;101056.56;;;13.22;69.31
62600;BME280;48671;48.922;2.346;2023-03-19T02:48:00;101066.94;;;13.23;69.41
62600;BME280;48671;48.922;2.346;2023-03-19T02:50:26;101065.25;;;13.22;69.34
62600;BME280;48671;48.922;2.346;2023-03-19T02:52:51;101056.69;;;13.19;69.19
62600;BME280;48671;48.922;2.346;2023-03-19T02:55:17;101060.06;;;13.21;69.15
62600;BME280;48671;48.922;2.346;2023-03-19T02:57:43;101069.56;;;13.23;69.21
62600;BME280;48671;48.922;2.346;2023-03-19T03:00:10;101073.00;;;13.24;69.00
62600;BME280;48671;48.922;2.346;2023-03-19T03:02:36;101057.59;;;13.18;69.18
62600;BME280;48671;48.922;2.346;2023-03-19T03:05:03;101064.31;;;13.25;68.88
62600;BME280;48671;48.922;2.346;2023-03-19T03:07:28;101063.47;;;13.23;69.15
62600;BME280;48671;48.922;2.346;2023-03-19T03:09:53;101069.63;;;13.22;68.98
62600;BME280;48671;48.922;2.346;2023-03-19T03:12:19;101072.16;;;13.25;69.12
62600;BME280;48671;48.922;2.346;2023-03-19T03:14:44;101075.53;;;13.27;69.17
62600;BME280;48671;48.922;2.346;2023-03-19T03:17:10;101072.06;;;13.26;69.27
62600;BME280;48671;48.922;2.346;2023-03-19T03:19:35;101069.53;;;13.25;69.61
62600;BME280;48671;48.922;2.346;2023-03-19T03:22:01;101066.78;;;13.28;69.43
62600;BME280;48671;48.922;2.346;2023-03-19T03:24:26;101071.31;;;13.24;69.36
62600;BME280;48671;48.922;2.346;2023-03-19T03:26:52;101069.41;;;13.28;69.39
62600;BME280;48671;48.922;2.346;2023-03-19T03:29:17;101070.38;;;13.25;68.99
62600;BME280;48671;48.922;2.346;2023-03-19T03:31:43;101079.84;;;13.28;68.89
62600;BME280;48671;48.922;2.346;2023-03-19T03:34:08;101073.69;;;13.29;69.08
62600;BME280;48671;48.922;2.346;2023-03-19T03:36:34;101069.63;;;13.22;68.98
62600;BME280;48671;48.922;2.346;2023-03-19T03:39:00;101073.28;;;13.18;69.47
62600;BME280;48671;48.922;2.346;2023-03-19T03:41:25;101082.69;;;13.22;69.25
62600;BME280;48671;48.922;2.346;2023-03-19T03:43:51;101076.53;;;13.23;69.19
62600;BME280;48671;48.922;2.346;2023-03-19T03:46:16;101074.84;;;13.22;69.03
62600;BME280;48671;48.922;2.346;2023-03-19T03:48:42;101077.25;;;13.28;68.94
62600;BME280;48671;48.922;2.346;2023-03-19T03:51:07;101074.84;;;13.22;68.70
62600;BME280;48671;48.922;2.346;2023-03-19T03:53:32;101076.53;;;13.23;68.73
62600;BME280;48671;48.922;2.346;2023-03-19T03:55:58;101083.53;;;13.22;68.52
62600;BME280;48671;48.922;2.346;2023-03-19T03:58:23;101083.59;;;13.21;68.49
62600;BME280;48671;48.922;2.346;2023-03-19T04:00:49;101075.31;;;13.11;68.57
62600;BME280;48671;48.922;2.346;2023-03-19T04:03:14;101088.44;;;13.09;68.69
62600;BME280;48671;48.922;2.346;2023-03-19T04:05:39;101091.97;;;13.08;69.04
62600;BME280;48671;48.922;2.346;2023-03-19T04:08:05;101079.09;;;13.04;68.99
62600;BME280;48671;48.922;2.346;2023-03-19T04:10:31;101067.19;;;12.98;68.78
62600;BME280;48671;48.922;2.346;2023-03-19T04:12:59;101090.34;;;13.06;68.78
62600;BME280;48671;48.922;2.346;2023-03-19T04:15:25;101093.75;;;13.08;69.01
62600;BME280;48671;48.922;2.346;2023-03-19T04:17:50;101069.78;;;12.98;68.79
62600;BME280;48671;48.922;2.346;2023-03-19T04:20:16;101086.34;;;12.97;68.99
62600;BME280;48671;48.922;2.346;2023-03-19T04:22:43;101084.47;;;13.01;68.92
62600;BME280;48671;48.922;2.346;2023-03-19T04:25:09;101084.47;;;13.01;69.45
62600;BME280;48671;48.922;2.346;2023-03-19T04:27:34;101084.00;;;12.91;69.87
62600;BME280;48671;48.922;2.346;2023-03-19T04:30:00;101096.41;;;12.86;69.86
62600;BME280;48671;48.922;2.346;2023-03-19T04:32:25;101094.91;;;12.80;70.29
62600;BME280;48671;48.922;2.346;2023-03-19T04:34:51;101091.69;;;12.74;70.49
62600;BME280;48671;48.922;2.346;2023-03-19T04:37:18;101102.16;;;12.74;72.03
62600;BME280;48671;48.922;2.346;2023-03-19T04:39:43;101098.16;;;12.65;71.01
62600;BME280;48671;48.922;2.346;2023-03-19T04:42:09;101113.81;;;12.65;72.10
62600;BME280;48671;48.922;2.346;2023-03-19T04:44:35;101107.03;;;12.61;71.53
62600;BME280;48671;48.922;2.346;2023-03-19T04:47:02;101102.16;;;12.52;71.45
62600;BME280;48671;48.922;2.346;2023-03-19T04:49:27;101103.00;;;12.52;71.81
62600;BME280;48671;48.922;2.346;2023-03-19T04:51:52;101093.38;;;12.54;71.48
62600;BME280;48671;48.922;2.346;2023-03-19T04:54:18;101102.78;;;12.58;71.77
62600;BME280;48671;48.922;2.346;2023-03-19T04:56:44;101100.28;;;12.55;72.00
62600;BME280;48671;48.922;2.346;2023-03-19T04:59:10;101097.06;;;12.49;72.18
62600;BME280;48671;48.922;2.346;2023-03-19T05:01:35;101112.47;;;12.55;72.42
62600;BME280;48671;48.922;2.346;2023-03-19T05:04:00;101114.44;;;12.50;72.46
62600;BME280;48671;48.922;2.346;2023-03-19T05:06:26;101112.59;;;12.52;72.02
62600;BME280;48671;48.922;2.346;2023-03-19T05:08:51;101105.81;;;12.48;72.88
62600;BME280;48671;48.922;2.346;2023-03-19T05:11:17;101110.31;;;12.44;72.93
62600;BME280;48671;48.922;2.346;2023-03-19T05:13:42;101121.69;;;12.43;72.82
62600;BME280;48671;48.922;2.346;2023-03-19T05:16:07;101123.25;;;12.47;72.75
62600;BME280;48671;48.922;2.346;2023-03-19T05:18:33;101116.25;;;12.48;72.62
62600;BME280;48671;48.922;2.346;2023-03-19T05:20:59;101130.34;;;12.44;72.76
62600;BME280;48671;48.922;2.346;2023-03-19T05:23:24;101132.88;;;12.45;72.56
62600;BME280;48671;48.922;2.346;2023-03-19T05:25:50;101129.31;;;12.48;73.03
62600;BME280;48671;48.922;2.346;2023-03-19T05:28:15;101127.53;;;12.48;72.88
62600;BME280;48671;48.922;2.346;2023-03-19T05:30:41;101132.59;;;12.53;72.95
62600;BME280;48671;48.922;2.346;2023-03-19T05:33:07;101141.88;;;12.60;72.85
62600;BME280;48671;48.922;2.346;2023-03-19T05:35:32;101143.69;;;12.58;72.87
62600;BME280;48671;48.922;2.346;2023-03-19T05:37:58;101137.56;;;12.59;72.78
62600;BME280;48671;48.922;2.346;2023-03-19T05:40:24;101151.53;;;12.58;72.10
62600;BME280;48671;48.922;2.346;2023-03-19T05:42:49;101151.53;;;12.58;72.70
62600;BME280;48671;48.922;2.346;2023-03-19T05:45:15;101157.59;;;12.58;72.50
62600;BME280;48671;48.922;2.346;2023-03-19T05:47:42;101159.44;;;12.56;72.57
62600;BME280;48671;48.922;2.346;2023-03-19T05:50:09;101155.09;;;12.55;72.83
62600;BME280;48671;48.922;2.346;2023-03-19T05:52:36;101150.06;;;12.51;72.90
62600;BME280;48671;48.922;2.346;2023-03-19T05:55:01;101155.38;;;12.49;72.81
62600;BME280;48671;48.922;2.346;2023-03-19T05:57:27;101178.66;;;12.54;73.12
62600;BME280;48671;48.922;2.346;2023-03-19T05:59:52;101171.03;;;12.49;73.08
62600;BME280;48671;48.922;2.346;2023-03-19T06:02:18;101164.81;;;12.52;72.69
62600;BME280;48671;48.922;2.346;2023-03-19T06:04:43;101176.25;;;12.49;72.49
62600;BME280;48671;48.922;2.346;2023-03-19T06:07:09;101175.38;;;12.49;72.43
62600;BME280;48671;48.922;2.346;2023-03-19T06:09:34;101173.88;;;12.43;72.71
62600;BME280;48671;48.922;2.346;2023-03-19T06:12:00;101192.03;;;12.46;73.02
62600;BME280;48671;48.922;2.346;2023-03-19T06:14:25;101176.47;;;12.43;73.00
62600;BME280;48671;48.922;2.346;2023-03-19T06:16:50;101182.47;;;12.45;72.47
62600;BME280;48671;48.922;2.346;2023-03-19T06:19:16;101197.91;;;12.51;72.54
62600;BME280;48671;48.922;2.346;2023-03-19T06:21:41;101183.16;;;12.50;73.09
62600;BME280;48671;48.922;2.346;2023-03-19T06:24:07;101187.47;;;12.51;72.51
62600;BME280;48671;48.922;2.346;2023-03-19T06:26:32;101184.91;;;12.50;72.71
62600;BME280;48671;48.922;2.346;2023-03-19T06:28:58;101186.69;;;12.49;72.53
62600;BME280;48671;48.922;2.346;2023-03-19T06:31:23;101198.69;;;12.53;72.54
62600;BME280;48671;48.922;2.346;2023-03-19T06:33:48;101197.13;;;12.49;72.60
62600;BME280;48671;48.922;2.346;2023-03-19T06:36:14;101205.84;;;12.48;72.84
62600;BME280;48671;48.922;2.346;2023-03-19T06:38:40;101216.13;;;12.53;72.95
62600;BME280;48671;48.922;2.346;2023-03-19T06:41:05;101213.56;;;12.51;72.78
62600;BME280;48671;48.922;2.346;2023-03-19T06:43:31;101210.94;;;12.51;72.76
62600;BME280;48671;48.922;2.346;2023-03-19T06:45:59;101199.13;;;12.43;72.64
62600;BME280;48671;48.922;2.346;2023-03-19T06:48:25;101206.94;;;12.43;72.69
62600;BME280;48671;48.922;2.346;2023-03-19T06:50:50;101220.72;;;12.46;73.01
62600;BME280;48671;48.922;2.346;2023-03-19T06:53:16;101213.06;;;12.41;72.58
62600;BME280;48671;48.922;2.346;2023-03-19T06:55:41;101218.22;;;12.43;72.77
62600;BME280;48671;48.922;2.346;2023-03-19T06:58:06;101224.22;;;12.45;73.16
62600;BME280;48671;48.922;2.346;2023-03-19T07:00:32;101214.59;;;12.47;72.93
62600;BME280;48671;48.922;2.346;2023-03-19T07:02:58;101223.22;;;12.49;72.63
62600;BME280;48671;48.922;2.346;2023-03-19T07:05:24;101231.66;;;12.56;72.36
62600;BME280;48671;48.922;2.346;2023-03-19T07:07:49;101214.47;;;12.50;72.65
62600;BME280;48671;48.922;2.346;2023-03-19T07:10:20;101214.34;;;12.53;72.44
62600;BME280;48671;48.922;2.346;2023-03-19T07:12:46;101217.50;;;12.61;72.43
62600;BME280;48671;48.922;2.346;2023-03-19T07:15:11;101218.50;;;12.59;72.40
62600;BME280;48671;48.922;2.346;2023-03-19T07:17:37;101216.84;;;12.56;72.44
62600;BME280;48671;48.922;2.346;2023-03-19T07:20:02;101231.47;;;12.60;72.38
62600;BME280;48671;48.922;2.346;2023-03-19T07:22:28;101220.06;;;12.63;72.06
62600;BME280;48671;48.922;2.346;2023-03-19T07:24:53;101230.31;;;12.68;71.57
62600;BME280;48671;48.922;2.346;2023-03-19T07:27:18;101229.47;;;12.67;71.54
62600;BME280;48671;48.922;2.346;2023-03-19T07:29:45;101218.50;;;12.59;71.23
62600;BME280;48671;48.922;2.346;2023-03-19T07:32:10;101223.72;;;12.59;70.66
62600;BME280;48671;48.922;2.346;2023-03-19T07:34:35;101222.00;;;12.58;70.34
62600;BME280;48671;48.922;2.346;2023-03-19T07:37:01;101233.16;;;12.61;69.92
62600;BME280;48671;48.922;2.346;2023-03-19T07:39:26;101227.19;;;12.59;70.04
62600;BME280;48671;48.922;2.346;2023-03-19T07:41:52;101222.13;;;12.55;70.28
62600;BME280;48671;48.922;2.346;2023-03-19T07:44:17;101223.94;;;12.53;70.01
62600;BME280;48671;48.922;2.346;2023-03-19T07:46:43;101216.84;;;12.56;70.38
62600;BME280;48671;48.922;2.346;2023-03-19T07:49:08;101231.28;;;13.09;70.08
62600;BME280;48671;48.922;2.346;2023-03-19T07:51:34;101229.38;;;13.75;68.36
62600;BME280;48671;48.922;2.346;2023-03-19T07:53:59;101224.63;;;14.42;67.25
62600;BME280;48671;48.922;2.346;2023-03-19T07:56:25;101224.50;;;15.00;65.34
62600;BME280;48671;48.922;2.346;2023-03-19T07:58:51;101227.91;;;15.19;64.36
62600;BME280;48671;48.922;2.346;2023-03-19T08:01:17;101214.16;;;15.49;64.11
62600;BME280;48671;48.922;2.346;2023-03-19T08:03:43;101231.63;;;16.01;62.74
62600;BME280;48671;48.922;2.346;2023-03-19T08:06:08;101240.66;;;16.44;61.31
62600;BME280;48671;48.922;2.346;2023-03-19T08:08:34;101228.53;;;16.73;59.67
62600;BME280;48671;48.922;2.346;2023-03-19T08:11:00;101238.78;;;16.94;59.57
62600;BME280;48671;48.922;2.346;2023-03-19T08:13:26;101236.31;;;17.06;57.77
62600;BME280;48671;48.922;2.346;2023-03-19T08:15:51;101240.22;;;16.99;56.22
62600;BME280;48671;48.922;2.346;2023-03-19T08:18:18;101250.34;;;16.91;57.61
62600;BME280;48671;48.922;2.346;2023-03-19T08:20:44;101246.94;;;16.89;58.69
62600;BME280;48671;48.922;2.346;2023-03-19T08:23:10;101241.78;;;16.88;59.10
62600;BME280;48671;48.922;2.346;2023-03-19T08:25:36;101246.59;;;16.63;58.70
62600;BME280;48671;48.922;2.346;2023-03-19T08:28:01;101249.88;;;16.20;59.36
62600;BME280;48671;48.922;2.346;2023-03-19T08:30:27;101253.19;;;15.90;60.40
62600;BME280;48671;48.922;2.346;2023-03-19T08:32:52;101253.72;;;15.62;60.67
62600;BME280;48671;48.922;2.346;2023-03-19T08:35:18;101259.84;;;15.28;60.80
62600;BME280;48671;48.922;2.346;2023-03-19T08:37:43;101269.34;;;14.94;61.71
62600;BME280;48671;48.922;2.346;2023-03-19T08:40:09;101269.03;;;14.64;61.73
62600;BME280;48671;48.922;2.346;2023-03-19T08:42:35;101283.22;;;14.39;62.50
62600;BME280;48671;48.922;2.346;2023-03-19T08:45:03;101281.00;;;14.11;63.41
62600;BME280;48671;48.922;2.346;2023-03-19T08:47:28;101296.75;;;13.89;63.85
62600;BME280;48671;48.922;2.346;2023-03-19T08:49:54;101292.38;;;13.69;64.60
62600;BME280;48671;48.922;2.346;2023-03-19T08:52:19;101305.13;;;13.56;64.35
62600;BME280;48671;48.922;2.346;2023-03-19T08:54:45;101304.19;;;13.37;64.69
62600;BME280;48671;48.922;2.346;2023-03-19T08:57:10;101323.59;;;13.31;65.16
62600;BME280;48671;48.922;2.346;2023-03-19T08:59:36;101334.31;;;13.25;65.01
62600;BME280;48671;48.922;2.346;2023-03-19T09:02:01;101333.94;;;13.11;65.09
62600;BME280;48671;48.922;2.346;2023-03-19T09:04:27;101341.28;;;13.01;65.45
62600;BME280;48671;48.922;2.346;2023-03-19T09:06:52;101340.69;;;12.95;65.67
62600;BME280;48671;48.922;2.346;2023-03-19T09:09:19;101337.41;;;12.89;65.91
62600;BME280;48671;48.922;2.346;2023-03-19T09:11:45;101340.25;;;12.83;65.74
62600;BME280;48671;48.922;2.346;2023-03-19T09:14:11;101337.75;;;12.80;65.88
62600;BME280;48671;48.922;2.346;2023-03-19T09:16:38;101342.88;;;12.83;65.85
62600;BME280;48671;48.922;2.346;2023-03-19T09:19:03;101346.63;;;12.76;66.08
62600;BME280;48671;48.922;2.346;2023-03-19T09:21:28;101335.44;;;12.73;66.39
62600;BME280;48671;48.922;2.346;2023-03-19T09:23:54;101324.16;;;12.72;66.59
62600;BME280;48671;48.922;2.346;2023-03-19T09:26:19;101338.78;;;12.76;66.71
62600;BME280;48671;48.922;2.346;2023-03-19T09:28:45;101353.41;;;12.80;67.31
62600;BME280;48671;48.922;2.346;2023-03-19T09:31:10;101347.25;;;12.83;66.51
62600;BME280;48671;48.922;2.346;2023-03-19T09:33:35;101350.06;;;12.77;66.74
62600;BME280;48671;48.922;2.346;2023-03-19T09:36:01;101331.97;;;12.72;67.00
62600;BME280;48671;48.922;2.346;2023-03-19T09:38:26;101359.22;;;12.88;66.98
62600;BME280;48671;48.922;2.346;2023-03-19T09:49:09;101361.34;;;13.01;66.12
62600;BME280;48671;48.922;2.346;2023-03-19T09:51:45;101371.13;;;12.96;67.15
62600;BME280;48671;48.922;2.346;2023-03-19T09:54:24;101359.94;;;12.92;66.74
62600;BME280;48671;48.922;2.346;2023-03-19T09:56:51;101373.66;;;12.97;67.06
62600;BME280;48671;48.922;2.346;2023-03-19T09:59:17;101380.66;;;12.97;67.19
62600;BME280;48671;48.922;2.346;2023-03-19T10:01:51;101381.97;;;12.85;67.94
62600;BME280;48671;48.922;2.346;2023-03-19T10:07:01;101377.16;;;12.74;68.64
62600;BME280;48671;48.922;2.346;2023-03-19T10:12:39;101393.41;;;12.82;70.28
62600;BME280;48671;48.922;2.346;2023-03-19T10:15:31;101382.38;;;12.74;69.24
62600;BME280;48671;48.922;2.346;2023-03-19T10:20:29;101396.75;;;12.62;70.52
62600;BME280;48671;48.922;2.346;2023-03-19T10:23:26;101394.38;;;12.55;71.25
62600;BME280;48671;48.922;2.346;2023-03-19T10:25:54;101392.00;;;12.49;70.45
62600;BME280;48671;48.922;2.346;2023-03-19T10:28:21;101399.78;;;12.50;71.35
62600;BME280;48671;48.922;2.346;2023-03-19T10:31:38;101403.75;;;12.60;71.33
62600;BME280;48671;48.922;2.346;2023-03-19T10:34:01;101399.81;;;12.74;71.47
62600;BME280;48671;48.922;2.346;2023-03-19T10:36:35;101397.78;;;12.82;71.25
62600;BME280;48671;48.922;2.346;2023-03-19T10:39:01;101401.13;;;12.85;70.73
62600;BME280;48671;48.922;2.346;2023-03-19T10:41:44;101399.28;;;12.87;71.22
62600;BME280;48671;48.922;2.346;2023-03-19T10:44:31;101399.28;;;12.87;70.41
62600;BME280;48671;48.922;2.346;2023-03-19T10:47:09;101399.34;;;12.86;69.85
62600;BME280;48671;48.922;2.346;2023-03-19T10:49:35;101400.38;;;12.82;70.84
62600;BME280;48671;48.922;2.346;2023-03-19T10:52:01;101403.16;;;12.77;70.66
62600;BME280;48671;48.922;2.346;2023-03-19T10:54:27;101409.19;;;12.79;70.71
62600;BME280;48671;48.922;2.346;2023-03-19T10:56:54;101420.00;;;12.69;69.94
62600;BME280;48671;48.922;2.346;2023-03-19T10:59:26;101426.81;;;12.49;68.70
62600;BME280;48671;48.922;2.346;2023-03-19T11:02:21;101418.78;;;12.29;68.33
62600;BME280;48671;48.922;2.346;2023-03-19T11:04:48;101437.44;;;12.18;68.75
62600;BME280;48671;48.922;2.346;2023-03-19T11:07:32;101430.94;;;12.05;68.83
62600;BME280;48671;48.922;2.346;2023-03-19T11:09:57;101432.63;;;12.06;68.92
62600;BME280;48671;48.922;2.346;2023-03-19T11:12:32;101428.53;;;11.99;69.13
62600;BME280;48671;48.922;2.346;2023-03-19T11:14:59;101426.00;;;11.95;68.92
62600;BME280;48671;48.922;2.346;2023-03-19T11:17:45;101433.94;;;11.92;68.76
62600;BME280;48671;48.922;2.346;2023-03-19T11:22:40;101439.34;;;11.86;69.30
62600;BME280;48671;48.922;2.346;2023-03-19T11:25:18;101436.81;;;11.85;69.41
62600;BME280;48671;48.922;2.346;2023-03-19T11:28:19;101448.78;;;11.90;70.02
62600;BME280;48671;48.922;2.346;2023-03-19T11:34:07;101416.03;;;12.08;70.10
62600;BME280;48671;48.922;2.346;2023-03-19T11:36:54;101432.81;;;12.51;69.82
62600;BME280;48671;48.922;2.346;2023-03-19T11:39:27;101434.34;;;12.82;68.46
62600;BME280;48671;48.922;2.346;2023-03-19T11:42:29;101441.53;;;13.22;67.90
62600;BME280;48671;48.922;2.346;2023-03-19T11:56:04;101452.63;;;13.05;63.13
62600;BME280;48671;48.922;2.346;2023-03-19T12:01:41;101451.28;;;12.94;62.11
62600;BME280;48671;48.922;2.346;2023-03-19T12:07:42;101453.56;;;13.03;62.87
62600;BME280;48671;48.922;2.346;2023-03-19T12:10:41;101454.50;;;13.02;60.91
62600;BME280;48671;48.922;2.346;2023-03-19T12:16:25;101460.97;;;12.92;60.35
62600;BME280;48671;48.922;2.346;2023-03-19T12:22:36;101460.66;;;13.23;59.98
62600;BME280;48671;48.922;2.346;2023-03-19T12:28:16;101454.94;;;13.37;59.96
62600;BME280;48671;48.922;2.346;2023-03-19T12:36:11;101451.47;;;13.36;57.38
62600;BME280;48671;48.922;2.346;2023-03-19T12:41:09;101458.25;;;13.42;56.93
62600;BME280;48671;48.922;2.346;2023-03-19T12:51:53;101468.50;;;13.24;56.33
62600;BME280;48671;48.922;2.346;2023-03-19T12:54:33;101466.00;;;13.20;56.27
62600;BME280;48671;48.922;2.346;2023-03-19T12:57:11;101455.97;;;13.09;56.37
62600;BME280;48671;48.922;2.346;2023-03-19T12:59:40;101470.59;;;13.13;55.57
62600;BME280;48671;48.922;2.346;2023-03-19T13:04:56;101458.16;;;13.20;55.27
62600;BME280;48671;48.922;2.346;2023-03-19T13:07:48;101464.03;;;13.26;54.56
62600;BME280;48671;48.922;2.346;2023-03-19T13:10:18;101458.78;;;13.28;54.92
62600;BME280;48671;48.922;2.346;2023-03-19T13:12:45;101464.97;;;13.25;55.08
62600;BME280;48671;48.922;2.346;2023-03-19T13:15:33;101476.19;;;13.27;55.30
62600;BME280;48671;48.922;2.346;2023-03-19T13:23:18;101482.41;;;13.23;54.18
62600;BME280;48671;48.922;2.346;2023-03-19T13:25:47;101489.41;;;13.24;53.40
62600;BME280;48671;48.922;2.346;2023-03-19T13:28:26;101487.63;;;13.23;53.49
62600;BME280;48671;48.922;2.346;2023-03-19T13:33:23;101485.41;;;13.38;53.65
62600;BME280;48671;48.922;2.346;2023-03-19T13:35:49;101492.03;;;13.46;53.05
62600;BME280;48671;48.922;2.346;2023-03-19T13:38:21;101500.59;;;13.50;52.60
62600;BME280;48671;48.922;2.346;2023-03-19T13:40:49;101496.50;;;13.44;51.17
62600;BME280;48671;48.922;2.346;2023-03-19T13:43:46;101496.75;;;13.37;51.47
62600;BME280;48671;48.922;2.346;2023-03-19T13:56:26;101504.56;;;13.60;49.90
62600;BME280;48671;48.922;2.346;2023-03-19T14:01:48;101502.41;;;13.71;50.09
62600;BME280;48671;48.922;2.346;2023-03-19T14:04:19;101509.81;;;13.82;51.09
62600;BME280;48671;48.922;2.346;2023-03-19T14:09:43;101512.56;;;14.01;51.00
62600;BME280;48671;48.922;2.346;2023-03-19T14:15:00;101508.16;;;14.01;49.95
62600;BME280;48671;48.922;2.346;2023-03-19T14:17:31;101513.88;;;13.89;49.36
62600;BME280;48671;48.922;2.346;2023-03-19T14:20:23;101522.97;;;13.80;49.82
62600;BME280;48671;48.922;2.346;2023-03-19T14:28:34;101522.38;;;13.50;49.56
62600;BME280;48671;48.922;2.346;2023-03-19T14:31:02;101528.63;;;13.46;49.93
62600;BME280;48671;48.922;2.346;2023-03-19T14:33:43;101525.16;;;13.46;50.78
62600;BME280;48671;48.922;2.346;2023-03-19T14:36:16;101524.22;;;13.48;50.24
62600;BME280;48671;48.922;2.346;2023-03-19T14:41:19;101525.28;;;13.43;49.82